China Lake Naws (Armitage Field) Airport
KNID : now visible

Airfield :











YOU CAN JOIN US ON...

 
LOGIN :

Register | Disclaimer

   EN    FR    IT 

 









Legend :    VFR   Marginal VFR   IFR   Intensive IFR   Very Intensive IFR
Visi :
Ceiling :
>= 8 km
>= 3000ft
5 to 8 km
1000 to 3000 ft
1500m to 5 km
500 to 1000 ft
800 to 1500m
200 to 500 ft
< 800m
< 200 ft
Symbols :   Thunderstorms  Fog  Heavy snow  Heavy precipitations  Wind > 20 kt






- Airport Elevation : 2283 ft


KNID - China Lake Naws (Armitage Field)

CURRENT METAR :
  • 220956Z AUTO 21012KT 10SM CLR 26/01 A2988 RMK AO2 SLP091 T02610011 $

EXPIRED METARs :
  • 220856Z AUTO 20011KT 10SM CLR 27/M01 A2988 RMK AO2 SLP092 T02721011 56003 $
  • 220756Z AUTO 22012KT 10SM CLR 28/M01 A2989 RMK AO2 SLP090 T02831011 404170256 $

TAF AMD TAF KNID
Valid from the 22 at 05:00 until the 22 at 23:00 UTC


2205/2223 23010G16KT 9999 SKC 520309 QNH2990INS
BECMG 2210/2212 22006KT 9999 FEW280 500000 QNH2987INS
BECMG 2218/2220 21016G26KT 9999 VCBLDU SCT280 510009 QNH2982INS WND 180V250
TEMPO 2221/2223 21022G32KT 9000 BLDU FEW002 BKN280 FEW002 BLDU LAST NO AMDS AFT 2205 NEXT 2215 T22/2213Z T40/2222Z AMD 0510
KZLA FIR / North America



MET'MAP, your aeronautical weather chart ! - Copyright ORBIFLY December 2007 - Disclaimer

ORBIFLY MET'MAP TEAM :

Programming & Development : Alexandra Zaïnal
Concept & original design : Baudouin d'Aumeries
Assistance for programming : Marc-Olivier Méhu
Technical & hardware support : Manuel Goepfert

Contact : metmap@orbifly.com




SOURCES & CREDITS :

   NOAA       Earth
Advisory